createdAt,value
2018-12-11T00:08:59.595Z,6.5
2018-12-11T00:19:03.014Z,6.4
2018-12-11T00:29:06.417Z,6.5
2018-12-11T00:39:09.865Z,6.4
2018-12-11T00:49:13.292Z,6.2
2018-12-11T00:59:16.713Z,6.1
2018-12-11T01:09:20.124Z,6.1
2018-12-11T01:19:23.535Z,6.2
2018-12-11T01:29:26.963Z,6.3
2018-12-11T01:39:30.379Z,6.4
2018-12-11T01:49:33.792Z,6.2
2018-12-11T01:59:37.225Z,6.1
2018-12-11T02:09:40.661Z,6.1
2018-12-11T02:19:44.063Z,6.1
2018-12-11T02:29:47.500Z,6
2018-12-11T02:39:50.952Z,6
2018-12-11T02:49:54.404Z,5.9
2018-12-11T02:59:57.876Z,5.7
2018-12-11T03:10:01.293Z,5.8
2018-12-11T03:20:04.753Z,5.6
2018-12-11T03:30:08.204Z,5.6
2018-12-11T03:40:11.655Z,5.7
2018-12-11T03:50:15.060Z,5.7
2018-12-11T04:00:18.519Z,5.6
2018-12-11T04:10:21.947Z,5.7
2018-12-11T04:20:25.384Z,5.8
2018-12-11T04:30:28.813Z,5.7
2018-12-11T04:40:32.197Z,5.7
2018-12-11T04:50:35.613Z,5.7
2018-12-11T05:00:39.008Z,5.7
2018-12-11T05:10:42.449Z,5.7
2018-12-11T05:20:45.887Z,5.6
2018-12-11T05:30:49.286Z,5.5
2018-12-11T05:40:52.682Z,5.4
2018-12-11T05:50:56.125Z,5.5
2018-12-11T06:00:59.587Z,5.6
2018-12-11T06:11:02.998Z,5.7
2018-12-11T06:21:06.414Z,5.7
2018-12-11T06:31:09.846Z,5.7
2018-12-11T06:41:13.250Z,5.6
2018-12-11T06:51:16.675Z,5.8
2018-12-11T07:01:20.089Z,5.6
2018-12-11T07:11:23.541Z,5.5
2018-12-11T07:21:26.962Z,5.5
2018-12-11T07:31:30.367Z,5.6
2018-12-11T07:41:33.751Z,5.7
2018-12-11T07:51:37.239Z,5.8
2018-12-11T08:01:40.652Z,5.9
2018-12-11T08:11:44.080Z,5.9
2018-12-11T08:21:47.478Z,6
2018-12-11T08:31:50.889Z,6
2018-12-11T08:41:54.317Z,9.3
2018-12-11T08:51:57.754Z,11.9
2018-12-11T09:02:01.161Z,10.3
2018-12-11T09:12:04.610Z,8.3
2018-12-11T09:22:08.020Z,7.6
2018-12-11T09:32:11.420Z,8.2
2018-12-11T09:42:14.821Z,8.7
2018-12-11T09:52:18.265Z,9
2018-12-11T10:02:21.702Z,9.3
2018-12-11T10:12:25.141Z,9.3
2018-12-11T10:34:44.932Z,8.4
2018-12-11T10:44:48.361Z,8.5
2018-12-11T10:54:51.777Z,7.9
2018-12-11T11:04:55.204Z,7.9
2018-12-11T11:14:58.722Z,8.2
2018-12-11T11:25:02.243Z,8.2
2018-12-11T11:35:05.665Z,8.4
2018-12-11T11:45:09.102Z,8.3
2018-12-11T11:55:12.554Z,8.3
2018-12-11T12:05:16.086Z,8.2
2018-12-11T12:15:19.467Z,8.1
2018-12-11T12:25:22.862Z,8.3
2018-12-11T12:35:26.258Z,8.4
2018-12-11T12:45:29.672Z,8.1
2018-12-11T12:55:33.109Z,8
2018-12-11T13:05:36.519Z,8.3
2018-12-11T13:15:39.989Z,8.2
2018-12-11T13:25:43.484Z,8.3
2018-12-11T13:35:46.960Z,8.2
2018-12-11T13:45:50.418Z,8.3
2018-12-11T13:55:54.038Z,8.2
2018-12-11T14:05:57.507Z,8.1
2018-12-11T14:16:00.933Z,8
2018-12-11T14:26:04.369Z,7.9
2018-12-11T14:36:07.779Z,7.9
2018-12-11T14:46:11.175Z,7.9
2018-12-11T14:56:14.608Z,7.8
2018-12-11T15:06:18.030Z,7.9
2018-12-11T15:16:21.460Z,7.8
2018-12-11T15:26:24.894Z,7.7
2018-12-11T15:36:28.309Z,7.5
2018-12-11T15:46:31.746Z,7.2
2018-12-11T15:56:35.146Z,7
2018-12-11T16:06:38.583Z,6.8
2018-12-11T16:16:41.995Z,6.7
2018-12-11T16:26:45.442Z,6.6
2018-12-11T16:36:48.842Z,6.5
2018-12-11T16:46:52.236Z,6.2
2018-12-11T16:56:55.668Z,6
2018-12-11T17:06:59.077Z,5.9
2018-12-11T17:17:02.504Z,5.8
2018-12-11T17:27:05.896Z,5.7
2018-12-11T17:37:09.327Z,5.5
2018-12-11T17:47:12.716Z,5.4
2018-12-11T17:57:16.114Z,5.3
2018-12-11T18:07:19.514Z,5.3
2018-12-11T18:17:22.946Z,5.2
2018-12-11T18:27:26.359Z,5.1
2018-12-11T18:37:29.797Z,4.9
2018-12-11T18:47:33.246Z,4.9
2018-12-11T18:57:36.662Z,4.9
2018-12-11T19:07:40.073Z,4.9
2018-12-11T19:17:43.499Z,4.6
2018-12-11T19:27:46.948Z,4.5
2018-12-11T19:37:50.395Z,4.4
2018-12-11T19:47:53.847Z,4.4
2018-12-11T19:57:59.676Z,4.2
2018-12-11T20:08:03.410Z,4.2
2018-12-11T20:18:12.695Z,4.4
2018-12-11T20:28:16.489Z,4.2
2018-12-11T20:38:19.907Z,4
2018-12-11T20:48:23.351Z,4.1
2018-12-11T20:58:26.763Z,4
2018-12-11T21:08:30.212Z,3.9
2018-12-11T21:18:33.708Z,3.9
2018-12-11T21:28:37.151Z,3.9
2018-12-11T21:38:40.548Z,3.8
2018-12-11T21:48:44.010Z,3.8
2018-12-11T21:58:47.437Z,3.6
2018-12-11T22:08:50.881Z,3.5
2018-12-11T22:18:54.276Z,3.6
2018-12-11T22:28:57.706Z,3.5
2018-12-11T22:39:01.149Z,3.5
2018-12-11T22:49:04.589Z,3.4
2018-12-11T22:59:08.033Z,3.3
2018-12-11T23:09:11.472Z,3.4
2018-12-11T23:19:14.890Z,3.3
2018-12-11T23:29:18.314Z,3.2
2018-12-11T23:39:21.755Z,3.2
2018-12-11T23:49:25.203Z,3.2
2018-12-11T23:59:29.185Z,3.1
